sensor_id;sensor_type;location;lat;lon;timestamp;P1;durP1;ratioP1;P2;durP2;ratioP2
63408;SDS011;49544;50.872;4.348;2022-08-06T00:01:15;3.15;;;1.40;;
63408;SDS011;49544;50.872;4.348;2022-08-06T00:03:44;5.55;;;1.08;;
63408;SDS011;49544;50.872;4.348;2022-08-06T00:06:14;2.53;;;1.08;;
63408;SDS011;49544;50.872;4.348;2022-08-06T00:08:50;6.72;;;1.27;;
63408;SDS011;49544;50.872;4.348;2022-08-06T00:11:16;2.25;;;0.98;;
63408;SDS011;49544;50.872;4.348;2022-08-06T00:13:55;3.72;;;1.13;;
63408;SDS011;49544;50.872;4.348;2022-08-06T00:16:30;4.95;;;1.33;;
63408;SDS011;49544;50.872;4.348;2022-08-06T00:19:00;5.28;;;1.17;;
63408;SDS011;49544;50.872;4.348;2022-08-06T00:21:31;4.68;;;1.40;;
63408;SDS011;49544;50.872;4.348;2022-08-06T00:24:02;6.55;;;1.27;;
63408;SDS011;49544;50.872;4.348;2022-08-06T00:26:40;5.45;;;1.23;;
63408;SDS011;49544;50.872;4.348;2022-08-06T00:29:08;6.30;;;1.75;;
63408;SDS011;49544;50.872;4.348;2022-08-06T00:31:39;5.03;;;1.17;;
63408;SDS011;49544;50.872;4.348;2022-08-06T00:34:07;6.85;;;1.50;;
63408;SDS011;49544;50.872;4.348;2022-08-06T00:36:42;4.93;;;1.27;;
63408;SDS011;49544;50.872;4.348;2022-08-06T00:39:17;4.15;;;1.00;;
63408;SDS011;49544;50.872;4.348;2022-08-06T00:41:56;4.15;;;1.10;;
63408;SDS011;49544;50.872;4.348;2022-08-06T00:44:27;5.43;;;1.10;;
63408;SDS011;49544;50.872;4.348;2022-08-06T00:46:55;7.63;;;1.30;;
63408;SDS011;49544;50.872;4.348;2022-08-06T00:49:32;4.35;;;1.73;;
63408;SDS011;49544;50.872;4.348;2022-08-06T00:52:00;4.43;;;1.60;;
63408;SDS011;49544;50.872;4.348;2022-08-06T00:54:26;4.50;;;1.27;;
63408;SDS011;49544;50.872;4.348;2022-08-06T00:57:05;2.45;;;1.45;;
63408;SDS011;49544;50.872;4.348;2022-08-06T00:59:32;5.80;;;1.38;;
63408;SDS011;49544;50.872;4.348;2022-08-06T01:02:07;4.30;;;1.30;;
63408;SDS011;49544;50.872;4.348;2022-08-06T01:04:35;5.47;;;1.17;;
63408;SDS011;49544;50.872;4.348;2022-08-06T01:07:06;4.95;;;1.30;;
63408;SDS011;49544;50.872;4.348;2022-08-06T01:09:35;4.18;;;1.23;;
63408;SDS011;49544;50.872;4.348;2022-08-06T01:12:06;5.50;;;1.50;;
63408;SDS011;49544;50.872;4.348;2022-08-06T01:14:38;3.05;;;1.30;;
63408;SDS011;49544;50.872;4.348;2022-08-06T01:17:15;5.15;;;1.90;;
63408;SDS011;49544;50.872;4.348;2022-08-06T01:20:15;4.13;;;1.27;;
63408;SDS011;49544;50.872;4.348;2022-08-06T01:28:30;4.28;;;1.42;;
63408;SDS011;49544;50.872;4.348;2022-08-06T01:31:14;5.80;;;1.52;;
63408;SDS011;49544;50.872;4.348;2022-08-06T01:33:52;5.07;;;1.95;;
63408;SDS011;49544;50.872;4.348;2022-08-06T01:37:01;5.57;;;1.20;;
63408;SDS011;49544;50.872;4.348;2022-08-06T01:39:26;4.63;;;1.20;;
63408;SDS011;49544;50.872;4.348;2022-08-06T01:41:55;6.28;;;1.55;;
63408;SDS011;49544;50.872;4.348;2022-08-06T01:44:30;2.38;;;1.30;;
63408;SDS011;49544;50.872;4.348;2022-08-06T01:47:10;3.80;;;1.23;;
63408;SDS011;49544;50.872;4.348;2022-08-06T01:49:42;4.60;;;1.33;;
63408;SDS011;49544;50.872;4.348;2022-08-06T01:52:17;5.03;;;1.35;;
63408;SDS011;49544;50.872;4.348;2022-08-06T01:54:47;3.55;;;1.15;;
63408;SDS011;49544;50.872;4.348;2022-08-06T01:57:19;4.43;;;1.20;;
63408;SDS011;49544;50.872;4.348;2022-08-06T01:59:51;4.70;;;1.15;;
63408;SDS011;49544;50.872;4.348;2022-08-06T02:02:34;6.00;;;1.40;;
63408;SDS011;49544;50.872;4.348;2022-08-06T02:05:04;8.32;;;1.50;;
63408;SDS011;49544;50.872;4.348;2022-08-06T02:07:33;6.40;;;2.33;;
63408;SDS011;49544;50.872;4.348;2022-08-06T02:10:03;5.75;;;1.58;;
63408;SDS011;49544;50.872;4.348;2022-08-06T02:12:34;5.93;;;1.70;;
63408;SDS011;49544;50.872;4.348;2022-08-06T02:15:15;3.60;;;1.45;;
63408;SDS011;49544;50.872;4.348;2022-08-06T02:17:49;6.18;;;1.60;;
63408;SDS011;49544;50.872;4.348;2022-08-06T02:20:29;7.00;;;1.60;;
63408;SDS011;49544;50.872;4.348;2022-08-06T02:23:10;7.05;;;1.80;;
63408;SDS011;49544;50.872;4.348;2022-08-06T02:25:52;4.70;;;1.73;;
63408;SDS011;49544;50.872;4.348;2022-08-06T02:28:27;7.95;;;2.00;;
63408;SDS011;49544;50.872;4.348;2022-08-06T02:30:59;6.18;;;1.58;;
63408;SDS011;49544;50.872;4.348;2022-08-06T02:33:30;6.05;;;1.38;;
63408;SDS011;49544;50.872;4.348;2022-08-06T02:36:14;4.00;;;1.27;;
63408;SDS011;49544;50.872;4.348;2022-08-06T02:38:52;8.73;;;1.70;;
63408;SDS011;49544;50.872;4.348;2022-08-06T02:41:43;4.25;;;1.20;;
63408;SDS011;49544;50.872;4.348;2022-08-06T02:47:53;8.68;;;2.78;;
63408;SDS011;49544;50.872;4.348;2022-08-06T02:50:11;4.05;;;1.33;;
63408;SDS011;49544;50.872;4.348;2022-08-06T02:52:59;6.80;;;1.25;;
63408;SDS011;49544;50.872;4.348;2022-08-06T02:55:32;5.70;;;1.90;;
63408;SDS011;49544;50.872;4.348;2022-08-06T02:58:11;7.80;;;1.58;;
63408;SDS011;49544;50.872;4.348;2022-08-06T03:01:15;4.82;;;1.23;;
63408;SDS011;49544;50.872;4.348;2022-08-06T03:03:49;6.43;;;1.95;;
63408;SDS011;49544;50.872;4.348;2022-08-06T03:06:23;5.95;;;1.23;;
63408;SDS011;49544;50.872;4.348;2022-08-06T03:08:54;9.27;;;1.65;;
63408;SDS011;49544;50.872;4.348;2022-08-06T03:11:26;2.60;;;1.55;;
63408;SDS011;49544;50.872;4.348;2022-08-06T03:14:01;5.43;;;2.33;;
63408;SDS011;49544;50.872;4.348;2022-08-06T03:16:30;6.28;;;1.50;;
63408;SDS011;49544;50.872;4.348;2022-08-06T03:19:03;7.95;;;1.83;;
63408;SDS011;49544;50.872;4.348;2022-08-06T03:21:33;6.05;;;2.33;;
63408;SDS011;49544;50.872;4.348;2022-08-06T03:23:59;4.53;;;1.48;;
63408;SDS011;49544;50.872;4.348;2022-08-06T03:26:32;4.93;;;1.40;;
63408;SDS011;49544;50.872;4.348;2022-08-06T03:29:04;8.52;;;1.70;;
63408;SDS011;49544;50.872;4.348;2022-08-06T03:31:34;6.43;;;1.60;;
63408;SDS011;49544;50.872;4.348;2022-08-06T03:34:03;4.63;;;1.33;;
63408;SDS011;49544;50.872;4.348;2022-08-06T03:36:32;5.50;;;1.58;;
63408;SDS011;49544;50.872;4.348;2022-08-06T03:39:04;5.45;;;1.60;;
63408;SDS011;49544;50.872;4.348;2022-08-06T03:41:35;5.82;;;1.73;;
63408;SDS011;49544;50.872;4.348;2022-08-06T03:44:05;3.55;;;1.30;;
63408;SDS011;49544;50.872;4.348;2022-08-06T03:46:42;4.88;;;1.10;;
63408;SDS011;49544;50.872;4.348;2022-08-06T03:49:21;5.03;;;1.40;;
63408;SDS011;49544;50.872;4.348;2022-08-06T03:51:58;6.00;;;1.80;;
63408;SDS011;49544;50.872;4.348;2022-08-06T03:54:29;7.10;;;1.92;;
63408;SDS011;49544;50.872;4.348;2022-08-06T03:57:02;4.63;;;1.60;;
63408;SDS011;49544;50.872;4.348;2022-08-06T03:59:37;10.68;;;6.40;;
63408;SDS011;49544;50.872;4.348;2022-08-06T04:02:06;4.68;;;1.80;;
63408;SDS011;49544;50.872;4.348;2022-08-06T04:04:35;9.00;;;1.98;;
63408;SDS011;49544;50.872;4.348;2022-08-06T04:07:07;6.43;;;1.75;;
63408;SDS011;49544;50.872;4.348;2022-08-06T04:09:34;2.75;;;1.42;;
63408;SDS011;49544;50.872;4.348;2022-08-06T04:12:04;5.05;;;2.00;;
63408;SDS011;49544;50.872;4.348;2022-08-06T04:14:37;4.55;;;1.42;;
63408;SDS011;49544;50.872;4.348;2022-08-06T04:17:08;5.38;;;1.73;;
63408;SDS011;49544;50.872;4.348;2022-08-06T04:19:37;4.13;;;1.70;;
63408;SDS011;49544;50.872;4.348;2022-08-06T04:22:07;10.15;;;2.17;;
63408;SDS011;49544;50.872;4.348;2022-08-06T04:24:38;14.60;;;2.20;;
63408;SDS011;49544;50.872;4.348;2022-08-06T04:27:07;4.38;;;1.58;;
63408;SDS011;49544;50.872;4.348;2022-08-06T04:32:03;5.75;;;1.73;;
63408;SDS011;49544;50.872;4.348;2022-08-06T04:34:36;4.55;;;1.50;;
63408;SDS011;49544;50.872;4.348;2022-08-06T04:37:09;6.28;;;2.00;;
63408;SDS011;49544;50.872;4.348;2022-08-06T04:39:38;6.68;;;3.50;;
63408;SDS011;49544;50.872;4.348;2022-08-06T04:42:04;5.47;;;2.50;;
63408;SDS011;49544;50.872;4.348;2022-08-06T04:44:36;7.78;;;2.00;;
63408;SDS011;49544;50.872;4.348;2022-08-06T04:47:02;7.00;;;4.95;;
63408;SDS011;49544;50.872;4.348;2022-08-06T04:49:29;10.13;;;6.18;;
63408;SDS011;49544;50.872;4.348;2022-08-06T04:52:02;10.98;;;5.13;;
63408;SDS011;49544;50.872;4.348;2022-08-06T04:54:33;8.25;;;2.95;;
63408;SDS011;49544;50.872;4.348;2022-08-06T04:57:06;12.55;;;4.05;;
63408;SDS011;49544;50.872;4.348;2022-08-06T04:59:37;7.70;;;2.30;;
63408;SDS011;49544;50.872;4.348;2022-08-06T05:02:11;4.97;;;2.40;;
63408;SDS011;49544;50.872;4.348;2022-08-06T05:04:41;8.98;;;2.33;;
63408;SDS011;49544;50.872;4.348;2022-08-06T05:07:26;10.60;;;2.78;;
63408;SDS011;49544;50.872;4.348;2022-08-06T05:09:58;9.15;;;2.20;;
63408;SDS011;49544;50.872;4.348;2022-08-06T05:12:38;4.47;;;2.00;;
63408;SDS011;49544;50.872;4.348;2022-08-06T05:15:29;6.10;;;1.90;;
63408;SDS011;49544;50.872;4.348;2022-08-06T05:18:08;5.97;;;1.60;;
63408;SDS011;49544;50.872;4.348;2022-08-06T05:20:43;5.85;;;2.05;;
63408;SDS011;49544;50.872;4.348;2022-08-06T05:23:39;5.20;;;1.70;;
63408;SDS011;49544;50.872;4.348;2022-08-06T05:26:08;4.75;;;1.88;;
63408;SDS011;49544;50.872;4.348;2022-08-06T05:28:36;6.88;;;2.40;;
63408;SDS011;49544;50.872;4.348;2022-08-06T05:31:04;7.03;;;2.30;;
63408;SDS011;49544;50.872;4.348;2022-08-06T05:33:34;12.38;;;2.70;;
63408;SDS011;49544;50.872;4.348;2022-08-06T05:36:04;6.03;;;2.10;;
63408;SDS011;49544;50.872;4.348;2022-08-06T05:38:42;8.20;;;2.13;;
63408;SDS011;49544;50.872;4.348;2022-08-06T05:41:14;5.85;;;2.08;;
63408;SDS011;49544;50.872;4.348;2022-08-06T05:43:42;7.57;;;3.53;;
63408;SDS011;49544;50.872;4.348;2022-08-06T05:46:12;6.75;;;2.10;;
63408;SDS011;49544;50.872;4.348;2022-08-06T05:48:54;8.00;;;2.00;;
63408;SDS011;49544;50.872;4.348;2022-08-06T05:54:27;7.80;;;2.10;;
63408;SDS011;49544;50.872;4.348;2022-08-06T05:57:09;8.68;;;2.20;;
63408;SDS011;49544;50.872;4.348;2022-08-06T05:59:44;6.65;;;2.13;;
63408;SDS011;49544;50.872;4.348;2022-08-06T06:02:24;5.80;;;1.77;;
63408;SDS011;49544;50.872;4.348;2022-08-06T06:04:58;6.68;;;1.65;;
63408;SDS011;49544;50.872;4.348;2022-08-06T06:07:30;7.70;;;1.85;;
63408;SDS011;49544;50.872;4.348;2022-08-06T06:09:55;5.80;;;1.80;;
63408;SDS011;49544;50.872;4.348;2022-08-06T06:12:22;9.93;;;2.00;;
63408;SDS011;49544;50.872;4.348;2022-08-06T06:14:50;4.95;;;1.48;;
63408;SDS011;49544;50.872;4.348;2022-08-06T06:17:24;7.03;;;2.13;;
63408;SDS011;49544;50.872;4.348;2022-08-06T06:22:55;5.50;;;1.50;;
63408;SDS011;49544;50.872;4.348;2022-08-06T06:25:45;9.75;;;2.05;;
63408;SDS011;49544;50.872;4.348;2022-08-06T06:28:37;7.95;;;1.50;;
63408;SDS011;49544;50.872;4.348;2022-08-06T06:31:21;5.93;;;1.83;;
63408;SDS011;49544;50.872;4.348;2022-08-06T06:36:46;8.13;;;1.42;;
63408;SDS011;49544;50.872;4.348;2022-08-06T06:39:23;5.32;;;1.40;;
63408;SDS011;49544;50.872;4.348;2022-08-06T06:42:04;10.23;;;1.70;;
63408;SDS011;49544;50.872;4.348;2022-08-06T06:44:49;7.25;;;1.40;;
63408;SDS011;49544;50.872;4.348;2022-08-06T06:50:16;7.75;;;1.38;;
63408;SDS011;49544;50.872;4.348;2022-08-06T06:52:49;8.95;;;1.85;;
63408;SDS011;49544;50.872;4.348;2022-08-06T06:55:27;5.32;;;1.27;;
63408;SDS011;49544;50.872;4.348;2022-08-06T06:58:11;4.38;;;1.58;;
63408;SDS011;49544;50.872;4.348;2022-08-06T07:00:45;4.07;;;1.08;;
63408;SDS011;49544;50.872;4.348;2022-08-06T07:03:17;7.05;;;1.38;;
63408;SDS011;49544;50.872;4.348;2022-08-06T07:05:47;9.32;;;4.22;;
63408;SDS011;49544;50.872;4.348;2022-08-06T07:08:23;4.93;;;1.50;;
63408;SDS011;49544;50.872;4.348;2022-08-06T07:13:24;5.32;;;1.45;;
63408;SDS011;49544;50.872;4.348;2022-08-06T07:15:56;5.95;;;1.25;;
63408;SDS011;49544;50.872;4.348;2022-08-06T07:18:31;9.45;;;1.45;;
63408;SDS011;49544;50.872;4.348;2022-08-06T07:21:04;2.70;;;0.98;;
63408;SDS011;49544;50.872;4.348;2022-08-06T07:23:33;5.00;;;1.42;;
63408;SDS011;49544;50.872;4.348;2022-08-06T07:26:02;6.68;;;1.45;;
63408;SDS011;49544;50.872;4.348;2022-08-06T07:28:32;7.70;;;1.13;;
63408;SDS011;49544;50.872;4.348;2022-08-06T07:31:10;4.93;;;1.52;;
63408;SDS011;49544;50.872;4.348;2022-08-06T07:33:39;7.25;;;1.50;;
63408;SDS011;49544;50.872;4.348;2022-08-06T07:36:10;7.03;;;1.30;;
63408;SDS011;49544;50.872;4.348;2022-08-06T07:38:44;6.13;;;1.40;;
63408;SDS011;49544;50.872;4.348;2022-08-06T07:41:13;8.15;;;1.33;;
63408;SDS011;49544;50.872;4.348;2022-08-06T07:46:13;3.50;;;1.13;;
63408;SDS011;49544;50.872;4.348;2022-08-06T07:48:49;6.32;;;1.38;;
63408;SDS011;49544;50.872;4.348;2022-08-06T07:51:24;5.43;;;1.08;;
63408;SDS011;49544;50.872;4.348;2022-08-06T07:53:57;5.57;;;1.60;;
63408;SDS011;49544;50.872;4.348;2022-08-06T07:56:24;4.07;;;1.02;;
63408;SDS011;49544;50.872;4.348;2022-08-06T07:58:56;4.28;;;1.08;;
63408;SDS011;49544;50.872;4.348;2022-08-06T08:01:23;7.50;;;1.30;;
63408;SDS011;49544;50.872;4.348;2022-08-06T08:04:02;4.50;;;0.90;;
63408;SDS011;49544;50.872;4.348;2022-08-06T08:06:50;8.95;;;1.42;;
63408;SDS011;49544;50.872;4.348;2022-08-06T08:09:22;10.68;;;2.00;;
63408;SDS011;49544;50.872;4.348;2022-08-06T08:11:54;4.10;;;1.10;;
63408;SDS011;49544;50.872;4.348;2022-08-06T08:14:26;4.95;;;1.58;;
63408;SDS011;49544;50.872;4.348;2022-08-06T08:16:54;8.48;;;1.75;;
63408;SDS011;49544;50.872;4.348;2022-08-06T08:19:28;4.75;;;0.98;;
63408;SDS011;49544;50.872;4.348;2022-08-06T08:21:58;9.23;;;1.33;;
63408;SDS011;49544;50.872;4.348;2022-08-06T08:24:33;5.32;;;0.93;;
63408;SDS011;49544;50.872;4.348;2022-08-06T08:27:00;3.93;;;1.30;;
63408;SDS011;49544;50.872;4.348;2022-08-06T08:29:31;5.43;;;1.48;;
63408;SDS011;49544;50.872;4.348;2022-08-06T08:32:02;6.35;;;1.15;;
63408;SDS011;49544;50.872;4.348;2022-08-06T08:34:28;3.22;;;1.45;;
63408;SDS011;49544;50.872;4.348;2022-08-06T08:37:04;5.32;;;1.60;;
63408;SDS011;49544;50.872;4.348;2022-08-06T08:39:30;4.10;;;0.85;;
63408;SDS011;49544;50.872;4.348;2022-08-06T08:42:05;8.73;;;1.42;;
63408;SDS011;49544;50.872;4.348;2022-08-06T08:44:35;3.17;;;1.08;;
63408;SDS011;49544;50.872;4.348;2022-08-06T08:47:10;7.07;;;1.00;;
63408;SDS011;49544;50.872;4.348;2022-08-06T08:49:51;5.63;;;0.93;;
63408;SDS011;49544;50.872;4.348;2022-08-06T08:52:31;4.97;;;1.10;;
63408;SDS011;49544;50.872;4.348;2022-08-06T08:55:03;5.05;;;1.05;;
63408;SDS011;49544;50.872;4.348;2022-08-06T08:57:39;5.65;;;1.10;;
63408;SDS011;49544;50.872;4.348;2022-08-06T09:00:13;2.60;;;0.90;;
63408;SDS011;49544;50.872;4.348;2022-08-06T09:02:39;3.05;;;0.73;;
63408;SDS011;49544;50.872;4.348;2022-08-06T09:05:10;5.32;;;0.93;;
63408;SDS011;49544;50.872;4.348;2022-08-06T09:07:38;3.45;;;0.88;;
63408;SDS011;49544;50.872;4.348;2022-08-06T09:10:10;6.05;;;1.00;;
63408;SDS011;49544;50.872;4.348;2022-08-06T09:12:44;3.92;;;0.93;;
63408;SDS011;49544;50.872;4.348;2022-08-06T09:15:19;3.92;;;1.10;;
63408;SDS011;49544;50.872;4.348;2022-08-06T09:17:54;7.65;;;1.13;;
63408;SDS011;49544;50.872;4.348;2022-08-06T09:20:25;3.35;;;1.00;;
63408;SDS011;49544;50.872;4.348;2022-08-06T09:22:54;4.70;;;1.13;;
63408;SDS011;49544;50.872;4.348;2022-08-06T09:25:53;4.97;;;1.08;;
63408;SDS011;49544;50.872;4.348;2022-08-06T09:34:06;4.60;;;1.05;;
63408;SDS011;49544;50.872;4.348;2022-08-06T09:36:43;3.38;;;0.90;;
63408;SDS011;49544;50.872;4.348;2022-08-06T09:39:10;2.30;;;0.85;;
63408;SDS011;49544;50.872;4.348;2022-08-06T09:41:48;5.47;;;1.25;;
63408;SDS011;49544;50.872;4.348;2022-08-06T09:44:15;4.80;;;1.17;;
63408;SDS011;49544;50.872;4.348;2022-08-06T09:46:45;4.03;;;1.08;;
63408;SDS011;49544;50.872;4.348;2022-08-06T09:49:19;3.28;;;1.50;;
63408;SDS011;49544;50.872;4.348;2022-08-06T09:51:52;4.93;;;1.35;;
63408;SDS011;49544;50.872;4.348;2022-08-06T09:54:43;4.13;;;0.93;;
63408;SDS011;49544;50.872;4.348;2022-08-06T09:57:09;2.00;;;0.77;;
63408;SDS011;49544;50.872;4.348;2022-08-06T09:59:51;3.63;;;1.33;;
63408;SDS011;49544;50.872;4.348;2022-08-06T10:02:20;2.90;;;0.85;;
63408;SDS011;49544;50.872;4.348;2022-08-06T10:04:52;2.65;;;0.70;;
63408;SDS011;49544;50.872;4.348;2022-08-06T10:07:28;2.83;;;1.00;;
63408;SDS011;49544;50.872;4.348;2022-08-06T10:09:56;1.88;;;0.60;;
63408;SDS011;49544;50.872;4.348;2022-08-06T10:12:25;3.75;;;0.70;;
63408;SDS011;49544;50.872;4.348;2022-08-06T10:14:55;3.55;;;0.98;;
63408;SDS011;49544;50.872;4.348;2022-08-06T10:17:26;1.88;;;1.02;;
63408;SDS011;49544;50.872;4.348;2022-08-06T10:22:50;3.92;;;1.10;;
63408;SDS011;49544;50.872;4.348;2022-08-06T10:25:30;1.42;;;0.55;;
63408;SDS011;49544;50.872;4.348;2022-08-06T10:28:09;1.40;;;0.60;;
63408;SDS011;49544;50.872;4.348;2022-08-06T10:30:37;2.38;;;0.70;;
63408;SDS011;49544;50.872;4.348;2022-08-06T10:33:06;2.75;;;0.77;;
63408;SDS011;49544;50.872;4.348;2022-08-06T10:35:33;4.50;;;0.98;;
63408;SDS011;49544;50.872;4.348;2022-08-06T10:38:11;2.45;;;0.57;;
63408;SDS011;49544;50.872;4.348;2022-08-06T10:40:46;1.38;;;0.52;;
63408;SDS011;49544;50.872;4.348;2022-08-06T10:43:19;3.33;;;0.60;;
63408;SDS011;49544;50.872;4.348;2022-08-06T10:45:49;3.05;;;0.65;;
63408;SDS011;49544;50.872;4.348;2022-08-06T10:48:17;2.75;;;0.70;;
63408;SDS011;49544;50.872;4.348;2022-08-06T10:50:46;3.92;;;0.80;;
63408;SDS011;49544;50.872;4.348;2022-08-06T10:53:12;1.85;;;0.73;;
63408;SDS011;49544;50.872;4.348;2022-08-06T10:55:44;3.35;;;0.80;;
63408;SDS011;49544;50.872;4.348;2022-08-06T10:58:15;2.50;;;0.63;;
63408;SDS011;49544;50.872;4.348;2022-08-06T11:00:48;2.13;;;0.95;;
63408;SDS011;49544;50.872;4.348;2022-08-06T11:03:17;2.75;;;0.82;;
63408;SDS011;49544;50.872;4.348;2022-08-06T11:05:55;3.70;;;0.73;;
63408;SDS011;49544;50.872;4.348;2022-08-06T11:14:03;2.30;;;0.70;;
63408;SDS011;49544;50.872;4.348;2022-08-06T11:16:36;2.60;;;0.63;;
63408;SDS011;49544;50.872;4.348;2022-08-06T11:19:09;2.92;;;1.33;;
63408;SDS011;49544;50.872;4.348;2022-08-06T11:21:47;1.70;;;0.75;;
63408;SDS011;49544;50.872;4.348;2022-08-06T11:24:14;0.77;;;0.45;;
63408;SDS011;49544;50.872;4.348;2022-08-06T11:26:43;1.98;;;0.75;;
63408;SDS011;49544;50.872;4.348;2022-08-06T11:29:13;2.05;;;0.68;;
63408;SDS011;49544;50.872;4.348;2022-08-06T11:31:46;2.63;;;0.73;;
63408;SDS011;49544;50.872;4.348;2022-08-06T11:34:22;3.72;;;1.02;;
63408;SDS011;49544;50.872;4.348;2022-08-06T11:37:10;3.22;;;0.80;;
63408;SDS011;49544;50.872;4.348;2022-08-06T11:40:05;2.50;;;0.65;;
63408;SDS011;49544;50.872;4.348;2022-08-06T11:42:41;4.78;;;0.70;;
63408;SDS011;49544;50.872;4.348;2022-08-06T11:45:12;8.05;;;0.80;;
63408;SDS011;49544;50.872;4.348;2022-08-06T11:50:39;3.63;;;1.10;;
63408;SDS011;49544;50.872;4.348;2022-08-06T11:53:10;2.10;;;0.50;;
63408;SDS011;49544;50.872;4.348;2022-08-06T11:56:06;3.30;;;0.70;;
63408;SDS011;49544;50.872;4.348;2022-08-06T11:58:38;1.45;;;0.50;;
63408;SDS011;49544;50.872;4.348;2022-08-06T12:01:07;3.40;;;0.60;;
63408;SDS011;49544;50.872;4.348;2022-08-06T12:03:36;1.30;;;0.60;;
63408;SDS011;49544;50.872;4.348;2022-08-06T12:06:21;3.10;;;0.77;;
63408;SDS011;49544;50.872;4.348;2022-08-06T12:11:33;2.10;;;0.80;;
63408;SDS011;49544;50.872;4.348;2022-08-06T12:14:00;6.15;;;1.15;;
63408;SDS011;49544;50.872;4.348;2022-08-06T12:16:36;2.95;;;1.02;;
63408;SDS011;49544;50.872;4.348;2022-08-06T12:19:06;6.15;;;1.23;;
63408;SDS011;49544;50.872;4.348;2022-08-06T12:21:39;1.45;;;0.70;;
63408;SDS011;49544;50.872;4.348;2022-08-06T12:24:13;2.55;;;1.00;;
63408;SDS011;49544;50.872;4.348;2022-08-06T12:26:39;3.40;;;1.10;;
63408;SDS011;49544;50.872;4.348;2022-08-06T12:29:11;3.30;;;1.05;;
63408;SDS011;49544;50.872;4.348;2022-08-06T12:31:37;3.67;;;1.02;;
63408;SDS011;49544;50.872;4.348;2022-08-06T12:34:06;4.22;;;1.00;;
63408;SDS011;49544;50.872;4.348;2022-08-06T12:36:32;2.83;;;0.88;;
63408;SDS011;49544;50.872;4.348;2022-08-06T12:39:03;1.92;;;0.90;;
63408;SDS011;49544;50.872;4.348;2022-08-06T12:41:31;2.80;;;1.17;;
63408;SDS011;49544;50.872;4.348;2022-08-06T12:44:09;3.95;;;1.00;;
63408;SDS011;49544;50.872;4.348;2022-08-06T12:46:40;2.20;;;0.93;;
63408;SDS011;49544;50.872;4.348;2022-08-06T12:49:12;4.03;;;0.80;;
63408;SDS011;49544;50.872;4.348;2022-08-06T12:51:40;2.70;;;1.00;;
63408;SDS011;49544;50.872;4.348;2022-08-06T12:54:14;2.85;;;0.77;;
63408;SDS011;49544;50.872;4.348;2022-08-06T12:56:52;3.28;;;0.88;;
63408;SDS011;49544;50.872;4.348;2022-08-06T12:59:17;3.83;;;0.88;;
63408;SDS011;49544;50.872;4.348;2022-08-06T13:01:53;3.03;;;1.45;;
63408;SDS011;49544;50.872;4.348;2022-08-06T13:04:19;2.30;;;1.05;;
63408;SDS011;49544;50.872;4.348;2022-08-06T13:06:46;2.30;;;1.00;;
63408;SDS011;49544;50.872;4.348;2022-08-06T13:09:31;2.53;;;1.23;;
63408;SDS011;49544;50.872;4.348;2022-08-06T13:12:10;3.05;;;1.10;;
63408;SDS011;49544;50.872;4.348;2022-08-06T13:14:57;3.47;;;1.05;;
63408;SDS011;49544;50.872;4.348;2022-08-06T13:17:38;5.72;;;1.10;;
63408;SDS011;49544;50.872;4.348;2022-08-06T13:20:14;2.55;;;1.10;;
63408;SDS011;49544;50.872;4.348;2022-08-06T13:22:49;3.70;;;1.05;;
63408;SDS011;49544;50.872;4.348;2022-08-06T13:25:23;3.13;;;0.90;;
63408;SDS011;49544;50.872;4.348;2022-08-06T13:28:14;4.32;;;1.10;;
63408;SDS011;49544;50.872;4.348;2022-08-06T13:30:42;3.53;;;1.33;;
63408;SDS011;49544;50.872;4.348;2022-08-06T13:33:24;4.80;;;2.08;;
63408;SDS011;49544;50.872;4.348;2022-08-06T13:36:03;2.75;;;1.38;;
63408;SDS011;49544;50.872;4.348;2022-08-06T13:38:39;2.88;;;1.30;;
63408;SDS011;49544;50.872;4.348;2022-08-06T13:41:08;3.03;;;1.00;;
63408;SDS011;49544;50.872;4.348;2022-08-06T13:43:51;1.95;;;1.30;;
63408;SDS011;49544;50.872;4.348;2022-08-06T13:46:23;4.28;;;1.05;;
63408;SDS011;49544;50.872;4.348;2022-08-06T13:48:51;3.63;;;1.05;;
63408;SDS011;49544;50.872;4.348;2022-08-06T13:51:21;2.65;;;1.13;;
63408;SDS011;49544;50.872;4.348;2022-08-06T13:53:50;4.32;;;1.55;;
63408;SDS011;49544;50.872;4.348;2022-08-06T13:56:26;4.25;;;1.30;;
63408;SDS011;49544;50.872;4.348;2022-08-06T13:58:58;2.33;;;1.08;;
63408;SDS011;49544;50.872;4.348;2022-08-06T14:01:34;2.90;;;1.65;;
63408;SDS011;49544;50.872;4.348;2022-08-06T14:04:04;2.55;;;1.05;;
63408;SDS011;49544;50.872;4.348;2022-08-06T14:06:38;5.30;;;1.10;;
63408;SDS011;49544;50.872;4.348;2022-08-06T14:09:04;2.78;;;1.60;;
63408;SDS011;49544;50.872;4.348;2022-08-06T14:11:38;2.47;;;1.60;;
63408;SDS011;49544;50.872;4.348;2022-08-06T14:14:06;4.38;;;1.48;;
63408;SDS011;49544;50.872;4.348;2022-08-06T14:16:36;3.20;;;1.38;;
63408;SDS011;49544;50.872;4.348;2022-08-06T14:19:02;4.80;;;1.92;;
63408;SDS011;49544;50.872;4.348;2022-08-06T14:21:31;2.05;;;1.25;;
63408;SDS011;49544;50.872;4.348;2022-08-06T14:23:56;3.40;;;1.63;;
63408;SDS011;49544;50.872;4.348;2022-08-06T14:26:28;4.72;;;1.30;;
63408;SDS011;49544;50.872;4.348;2022-08-06T14:28:54;4.00;;;1.30;;
63408;SDS011;49544;50.872;4.348;2022-08-06T14:31:25;2.30;;;1.23;;
63408;SDS011;49544;50.872;4.348;2022-08-06T14:33:57;2.47;;;1.10;;
63408;SDS011;49544;50.872;4.348;2022-08-06T14:36:27;1.63;;;1.15;;
63408;SDS011;49544;50.872;4.348;2022-08-06T14:38:56;3.30;;;1.30;;
63408;SDS011;49544;50.872;4.348;2022-08-06T14:41:24;3.33;;;1.40;;
63408;SDS011;49544;50.872;4.348;2022-08-06T14:44:14;1.85;;;1.30;;
63408;SDS011;49544;50.872;4.348;2022-08-06T14:47:03;2.70;;;1.25;;
63408;SDS011;49544;50.872;4.348;2022-08-06T14:49:32;1.40;;;1.08;;
63408;SDS011;49544;50.872;4.348;2022-08-06T14:52:07;3.35;;;1.20;;
63408;SDS011;49544;50.872;4.348;2022-08-06T14:54:40;2.00;;;1.40;;
63408;SDS011;49544;50.872;4.348;2022-08-06T14:57:09;3.78;;;1.33;;
63408;SDS011;49544;50.872;4.348;2022-08-06T14:59:38;3.60;;;1.58;;
63408;SDS011;49544;50.872;4.348;2022-08-06T15:02:07;4.40;;;1.45;;
63408;SDS011;49544;50.872;4.348;2022-08-06T15:04:38;3.28;;;1.65;;
63408;SDS011;49544;50.872;4.348;2022-08-06T15:07:09;4.05;;;1.33;;
63408;SDS011;49544;50.872;4.348;2022-08-06T15:09:34;5.10;;;1.67;;
63408;SDS011;49544;50.872;4.348;2022-08-06T15:12:00;4.75;;;2.33;;
63408;SDS011;49544;50.872;4.348;2022-08-06T15:14:31;4.10;;;1.52;;
63408;SDS011;49544;50.872;4.348;2022-08-06T15:16:59;3.03;;;1.95;;
63408;SDS011;49544;50.872;4.348;2022-08-06T15:19:28;2.60;;;1.40;;
63408;SDS011;49544;50.872;4.348;2022-08-06T15:21:53;3.30;;;1.48;;
63408;SDS011;49544;50.872;4.348;2022-08-06T15:24:22;4.30;;;1.63;;
63408;SDS011;49544;50.872;4.348;2022-08-06T15:26:52;4.95;;;1.88;;
63408;SDS011;49544;50.872;4.348;2022-08-06T15:29:23;5.20;;;1.60;;
63408;SDS011;49544;50.872;4.348;2022-08-06T15:31:57;2.05;;;1.52;;
63408;SDS011;49544;50.872;4.348;2022-08-06T15:34:23;4.80;;;1.95;;
63408;SDS011;49544;50.872;4.348;2022-08-06T15:36:51;4.32;;;1.50;;
63408;SDS011;49544;50.872;4.348;2022-08-06T15:39:17;3.30;;;1.40;;
63408;SDS011;49544;50.872;4.348;2022-08-06T15:41:48;2.67;;;1.30;;
63408;SDS011;49544;50.872;4.348;2022-08-06T15:44:13;2.78;;;1.55;;
63408;SDS011;49544;50.872;4.348;2022-08-06T15:46:44;6.25;;;1.40;;
63408;SDS011;49544;50.872;4.348;2022-08-06T15:49:16;3.15;;;1.60;;
63408;SDS011;49544;50.872;4.348;2022-08-06T15:51:47;2.40;;;1.60;;
63408;SDS011;49544;50.872;4.348;2022-08-06T15:54:20;2.85;;;1.38;;
63408;SDS011;49544;50.872;4.348;2022-08-06T15:56:54;4.45;;;1.60;;
63408;SDS011;49544;50.872;4.348;2022-08-06T15:59:24;2.58;;;1.55;;
63408;SDS011;49544;50.872;4.348;2022-08-06T16:01:53;2.30;;;1.58;;
63408;SDS011;49544;50.872;4.348;2022-08-06T16:04:21;1.88;;;1.23;;
63408;SDS011;49544;50.872;4.348;2022-08-06T16:06:53;3.15;;;1.40;;
63408;SDS011;49544;50.872;4.348;2022-08-06T16:09:24;4.72;;;1.88;;
63408;SDS011;49544;50.872;4.348;2022-08-06T16:11:53;2.75;;;1.40;;